sensor_id;sensor_type;location;lat;lon;timestamp;P1;durP1;ratioP1;P2;durP2;ratioP2
84260;SDS011;74405;44.868;18.808;2024-03-23T00:54:56;44.10;;;25.27;;
84260;SDS011;74405;44.868;18.808;2024-03-23T00:57:21;45.03;;;25.05;;
84260;SDS011;74405;44.868;18.808;2024-03-23T00:59:47;40.42;;;23.80;;
84260;SDS011;74405;44.868;18.808;2024-03-23T01:02:12;40.92;;;24.70;;
84260;SDS011;74405;44.868;18.808;2024-03-23T01:04:37;42.20;;;23.08;;
84260;SDS011;74405;44.868;18.808;2024-03-23T01:07:03;37.42;;;21.25;;
84260;SDS011;74405;44.868;18.808;2024-03-23T01:09:28;38.00;;;19.98;;
84260;SDS011;74405;44.868;18.808;2024-03-23T01:11:54;33.00;;;20.30;;
84260;SDS011;74405;44.868;18.808;2024-03-23T01:14:19;33.00;;;18.20;;
84260;SDS011;74405;44.868;18.808;2024-03-23T01:16:45;28.13;;;18.13;;
84260;SDS011;74405;44.868;18.808;2024-03-23T01:19:10;28.15;;;17.48;;
84260;SDS011;74405;44.868;18.808;2024-03-23T01:21:36;30.95;;;17.70;;
84260;SDS011;74405;44.868;18.808;2024-03-23T01:24:01;28.27;;;17.85;;
84260;SDS011;74405;44.868;18.808;2024-03-23T01:26:26;30.25;;;17.38;;
84260;SDS011;74405;44.868;18.808;2024-03-23T01:28:52;25.42;;;16.92;;
84260;SDS011;74405;44.868;18.808;2024-03-23T01:31:18;25.70;;;16.63;;
84260;SDS011;74405;44.868;18.808;2024-03-23T01:33:43;32.03;;;19.25;;
84260;SDS011;74405;44.868;18.808;2024-03-23T01:36:08;32.25;;;20.08;;
84260;SDS011;74405;44.868;18.808;2024-03-23T01:38:34;39.28;;;22.17;;
84260;SDS011;74405;44.868;18.808;2024-03-23T01:40:59;51.20;;;27.42;;
84260;SDS011;74405;44.868;18.808;2024-03-23T01:43:25;47.65;;;25.90;;
84260;SDS011;74405;44.868;18.808;2024-03-23T01:45:50;44.17;;;23.63;;
84260;SDS011;74405;44.868;18.808;2024-03-23T01:48:18;41.97;;;23.00;;
84260;SDS011;74405;44.868;18.808;2024-03-23T01:50:44;42.53;;;24.48;;
84260;SDS011;74405;44.868;18.808;2024-03-23T01:53:09;45.95;;;26.15;;
84260;SDS011;74405;44.868;18.808;2024-03-23T01:55:35;47.03;;;25.90;;
84260;SDS011;74405;44.868;18.808;2024-03-23T01:58:04;50.05;;;25.83;;
84260;SDS011;74405;44.868;18.808;2024-03-23T02:00:30;51.45;;;28.48;;
84260;SDS011;74405;44.868;18.808;2024-03-23T02:02:55;53.65;;;28.90;;
84260;SDS011;74405;44.868;18.808;2024-03-23T02:05:21;59.65;;;32.05;;
84260;SDS011;74405;44.868;18.808;2024-03-23T02:07:47;57.10;;;29.85;;
84260;SDS011;74405;44.868;18.808;2024-03-23T02:10:12;58.13;;;30.38;;
84260;SDS011;74405;44.868;18.808;2024-03-23T02:12:38;51.92;;;28.33;;
84260;SDS011;74405;44.868;18.808;2024-03-23T02:15:04;50.38;;;28.85;;
84260;SDS011;74405;44.868;18.808;2024-03-23T02:17:30;53.28;;;30.08;;
84260;SDS011;74405;44.868;18.808;2024-03-23T02:19:55;58.85;;;34.42;;
84260;SDS011;74405;44.868;18.808;2024-03-23T02:22:21;60.92;;;33.47;;
84260;SDS011;74405;44.868;18.808;2024-03-23T02:24:46;51.28;;;29.85;;
84260;SDS011;74405;44.868;18.808;2024-03-23T02:27:12;56.60;;;31.95;;
84260;SDS011;74405;44.868;18.808;2024-03-23T02:29:37;59.92;;;33.53;;
84260;SDS011;74405;44.868;18.808;2024-03-23T02:32:03;62.15;;;32.28;;
84260;SDS011;74405;44.868;18.808;2024-03-23T02:34:28;59.70;;;33.60;;
84260;SDS011;74405;44.868;18.808;2024-03-23T02:36:53;63.78;;;32.55;;
84260;SDS011;74405;44.868;18.808;2024-03-23T02:39:19;55.65;;;31.88;;
84260;SDS011;74405;44.868;18.808;2024-03-23T02:41:44;59.45;;;31.90;;
84260;SDS011;74405;44.868;18.808;2024-03-23T02:44:10;54.33;;;29.92;;
84260;SDS011;74405;44.868;18.808;2024-03-23T02:46:37;54.03;;;29.20;;
84260;SDS011;74405;44.868;18.808;2024-03-23T02:49:03;54.95;;;30.73;;
84260;SDS011;74405;44.868;18.808;2024-03-23T02:51:29;57.40;;;30.52;;
84260;SDS011;74405;44.868;18.808;2024-03-23T02:53:55;70.43;;;32.38;;
84260;SDS011;74405;44.868;18.808;2024-03-23T02:56:21;71.38;;;33.75;;
84260;SDS011;74405;44.868;18.808;2024-03-23T02:58:46;87.68;;;37.35;;
84260;SDS011;74405;44.868;18.808;2024-03-23T03:01:12;78.90;;;36.15;;
84260;SDS011;74405;44.868;18.808;2024-03-23T03:03:37;72.95;;;33.05;;
84260;SDS011;74405;44.868;18.808;2024-03-23T03:06:03;86.07;;;36.30;;
84260;SDS011;74405;44.868;18.808;2024-03-23T03:08:28;72.82;;;34.13;;
84260;SDS011;74405;44.868;18.808;2024-03-23T03:10:54;121.55;;;45.58;;
84260;SDS011;74405;44.868;18.808;2024-03-23T03:13:19;121.45;;;46.15;;
84260;SDS011;74405;44.868;18.808;2024-03-23T03:15:45;101.57;;;40.03;;
84260;SDS011;74405;44.868;18.808;2024-03-23T03:18:10;60.33;;;29.80;;
84260;SDS011;74405;44.868;18.808;2024-03-23T03:20:39;66.10;;;30.20;;
84260;SDS011;74405;44.868;18.808;2024-03-23T03:23:05;55.75;;;27.20;;
84260;SDS011;74405;44.868;18.808;2024-03-23T03:25:30;51.38;;;26.33;;
84260;SDS011;74405;44.868;18.808;2024-03-23T03:27:56;55.60;;;27.70;;
84260;SDS011;74405;44.868;18.808;2024-03-23T03:30:21;51.47;;;26.63;;
84260;SDS011;74405;44.868;18.808;2024-03-23T03:32:46;57.88;;;26.92;;
84260;SDS011;74405;44.868;18.808;2024-03-23T03:35:12;58.20;;;26.90;;
84260;SDS011;74405;44.868;18.808;2024-03-23T03:37:38;49.33;;;24.63;;
84260;SDS011;74405;44.868;18.808;2024-03-23T03:40:03;46.08;;;23.15;;
84260;SDS011;74405;44.868;18.808;2024-03-23T03:42:29;45.42;;;23.08;;
84260;SDS011;74405;44.868;18.808;2024-03-23T03:44:54;43.42;;;21.85;;
84260;SDS011;74405;44.868;18.808;2024-03-23T03:47:20;44.63;;;23.13;;
84260;SDS011;74405;44.868;18.808;2024-03-23T03:49:45;45.53;;;23.15;;
84260;SDS011;74405;44.868;18.808;2024-03-23T03:52:10;48.88;;;25.35;;
84260;SDS011;74405;44.868;18.808;2024-03-23T03:54:36;47.65;;;24.23;;
84260;SDS011;74405;44.868;18.808;2024-03-23T03:57:01;48.45;;;24.52;;
84260;SDS011;74405;44.868;18.808;2024-03-23T03:59:27;48.10;;;24.35;;
84260;SDS011;74405;44.868;18.808;2024-03-23T04:01:52;45.50;;;23.70;;
84260;SDS011;74405;44.868;18.808;2024-03-23T04:04:18;46.63;;;23.55;;
84260;SDS011;74405;44.868;18.808;2024-03-23T04:06:43;44.13;;;23.30;;
84260;SDS011;74405;44.868;18.808;2024-03-23T04:09:09;41.63;;;23.10;;
84260;SDS011;74405;44.868;18.808;2024-03-23T04:11:35;51.42;;;25.83;;
84260;SDS011;74405;44.868;18.808;2024-03-23T04:14:00;49.58;;;27.00;;
84260;SDS011;74405;44.868;18.808;2024-03-23T04:16:33;53.53;;;26.50;;
84260;SDS011;74405;44.868;18.808;2024-03-23T04:18:59;54.72;;;28.00;;
84260;SDS011;74405;44.868;18.808;2024-03-23T04:21:24;58.67;;;28.30;;
84260;SDS011;74405;44.868;18.808;2024-03-23T04:23:49;54.88;;;28.20;;
84260;SDS011;74405;44.868;18.808;2024-03-23T04:26:15;60.53;;;28.73;;
84260;SDS011;74405;44.868;18.808;2024-03-23T04:28:40;51.88;;;27.63;;
84260;SDS011;74405;44.868;18.808;2024-03-23T04:31:06;57.90;;;31.40;;
84260;SDS011;74405;44.868;18.808;2024-03-23T04:33:32;48.35;;;28.50;;
84260;SDS011;74405;44.868;18.808;2024-03-23T04:35:57;55.72;;;29.23;;
84260;SDS011;74405;44.868;18.808;2024-03-23T04:38:22;54.42;;;27.80;;
84260;SDS011;74405;44.868;18.808;2024-03-23T04:40:57;47.97;;;27.08;;
84260;SDS011;74405;44.868;18.808;2024-03-23T04:43:23;52.65;;;28.52;;
84260;SDS011;74405;44.868;18.808;2024-03-23T04:45:49;49.20;;;27.83;;
84260;SDS011;74405;44.868;18.808;2024-03-23T04:48:14;53.38;;;27.80;;
84260;SDS011;74405;44.868;18.808;2024-03-23T04:50:39;49.85;;;26.67;;
84260;SDS011;74405;44.868;18.808;2024-03-23T04:53:06;48.70;;;26.00;;
84260;SDS011;74405;44.868;18.808;2024-03-23T04:55:32;46.42;;;25.50;;
84260;SDS011;74405;44.868;18.808;2024-03-23T04:57:57;58.78;;;30.65;;
84260;SDS011;74405;44.868;18.808;2024-03-23T05:00:23;59.42;;;29.80;;
84260;SDS011;74405;44.868;18.808;2024-03-23T05:02:48;52.67;;;27.80;;
84260;SDS011;74405;44.868;18.808;2024-03-23T05:05:14;57.08;;;28.83;;
84260;SDS011;74405;44.868;18.808;2024-03-23T05:07:39;56.22;;;27.98;;
84260;SDS011;74405;44.868;18.808;2024-03-23T05:10:05;47.25;;;25.08;;
84260;SDS011;74405;44.868;18.808;2024-03-23T05:12:30;63.72;;;31.98;;
84260;SDS011;74405;44.868;18.808;2024-03-23T05:14:56;59.75;;;31.60;;
84260;SDS011;74405;44.868;18.808;2024-03-23T05:17:22;61.80;;;31.92;;
84260;SDS011;74405;44.868;18.808;2024-03-23T05:19:48;54.22;;;31.08;;
84260;SDS011;74405;44.868;18.808;2024-03-23T05:22:13;63.33;;;32.15;;
84260;SDS011;74405;44.868;18.808;2024-03-23T05:24:38;70.47;;;36.30;;
84260;SDS011;74405;44.868;18.808;2024-03-23T05:27:04;66.30;;;32.95;;
84260;SDS011;74405;44.868;18.808;2024-03-23T05:29:29;60.22;;;32.72;;
84260;SDS011;74405;44.868;18.808;2024-03-23T05:31:55;61.00;;;32.45;;
84260;SDS011;74405;44.868;18.808;2024-03-23T05:34:22;56.03;;;29.25;;
84260;SDS011;74405;44.868;18.808;2024-03-23T05:36:47;58.58;;;32.53;;
84260;SDS011;74405;44.868;18.808;2024-03-23T05:39:14;81.22;;;39.28;;
84260;SDS011;74405;44.868;18.808;2024-03-23T05:41:41;73.57;;;39.22;;
84260;SDS011;74405;44.868;18.808;2024-03-23T05:44:07;86.80;;;40.38;;
84260;SDS011;74405;44.868;18.808;2024-03-23T05:46:32;79.72;;;39.45;;
84260;SDS011;74405;44.868;18.808;2024-03-23T05:49:00;78.05;;;38.58;;
84260;SDS011;74405;44.868;18.808;2024-03-23T05:51:26;81.43;;;39.70;;
84260;SDS011;74405;44.868;18.808;2024-03-23T05:53:52;67.40;;;35.00;;
84260;SDS011;74405;44.868;18.808;2024-03-23T05:56:19;86.88;;;40.88;;
84260;SDS011;74405;44.868;18.808;2024-03-23T05:58:44;78.18;;;39.67;;
84260;SDS011;74405;44.868;18.808;2024-03-23T06:01:10;73.65;;;36.13;;
84260;SDS011;74405;44.868;18.808;2024-03-23T06:03:35;71.60;;;34.15;;
84260;SDS011;74405;44.868;18.808;2024-03-23T06:06:01;60.67;;;33.60;;
84260;SDS011;74405;44.868;18.808;2024-03-23T06:08:26;60.30;;;32.72;;
84260;SDS011;74405;44.868;18.808;2024-03-23T06:10:51;57.97;;;32.10;;
84260;SDS011;74405;44.868;18.808;2024-03-23T06:13:17;60.92;;;32.20;;
84260;SDS011;74405;44.868;18.808;2024-03-23T06:15:43;58.83;;;31.30;;
84260;SDS011;74405;44.868;18.808;2024-03-23T06:18:08;57.45;;;31.83;;
84260;SDS011;74405;44.868;18.808;2024-03-23T06:20:34;58.30;;;32.22;;
84260;SDS011;74405;44.868;18.808;2024-03-23T06:23:00;60.55;;;32.72;;
84260;SDS011;74405;44.868;18.808;2024-03-23T06:25:26;56.03;;;32.25;;
84260;SDS011;74405;44.868;18.808;2024-03-23T06:27:51;55.40;;;29.83;;
84260;SDS011;74405;44.868;18.808;2024-03-23T06:30:17;49.05;;;27.83;;
84260;SDS011;74405;44.868;18.808;2024-03-23T06:32:42;48.08;;;28.00;;
84260;SDS011;74405;44.868;18.808;2024-03-23T06:35:07;45.13;;;27.05;;
84260;SDS011;74405;44.868;18.808;2024-03-23T06:37:37;37.88;;;23.77;;
84260;SDS011;74405;44.868;18.808;2024-03-23T06:40:04;38.83;;;23.88;;
84260;SDS011;74405;44.868;18.808;2024-03-23T06:42:32;39.72;;;24.33;;
84260;SDS011;74405;44.868;18.808;2024-03-23T06:44:57;43.58;;;24.02;;
84260;SDS011;74405;44.868;18.808;2024-03-23T06:47:23;40.40;;;23.33;;
84260;SDS011;74405;44.868;18.808;2024-03-23T06:49:48;39.53;;;24.95;;
84260;SDS011;74405;44.868;18.808;2024-03-23T06:52:13;48.78;;;29.92;;
84260;SDS011;74405;44.868;18.808;2024-03-23T06:54:39;34.13;;;22.77;;
84260;SDS011;74405;44.868;18.808;2024-03-23T06:57:04;32.40;;;20.95;;
84260;SDS011;74405;44.868;18.808;2024-03-23T06:59:30;45.15;;;28.58;;
84260;SDS011;74405;44.868;18.808;2024-03-23T07:01:55;35.15;;;23.00;;
84260;SDS011;74405;44.868;18.808;2024-03-23T07:04:21;28.73;;;17.95;;
84260;SDS011;74405;44.868;18.808;2024-03-23T07:06:46;27.80;;;17.55;;
84260;SDS011;74405;44.868;18.808;2024-03-23T07:09:11;30.13;;;18.20;;
84260;SDS011;74405;44.868;18.808;2024-03-23T07:11:37;30.52;;;18.90;;
84260;SDS011;74405;44.868;18.808;2024-03-23T07:14:03;28.95;;;18.38;;
84260;SDS011;74405;44.868;18.808;2024-03-23T07:16:28;28.77;;;20.52;;
84260;SDS011;74405;44.868;18.808;2024-03-23T07:18:54;31.20;;;19.30;;
84260;SDS011;74405;44.868;18.808;2024-03-23T07:21:19;30.80;;;20.30;;
84260;SDS011;74405;44.868;18.808;2024-03-23T07:23:45;26.27;;;17.92;;
84260;SDS011;74405;44.868;18.808;2024-03-23T07:26:10;26.17;;;17.80;;
84260;SDS011;74405;44.868;18.808;2024-03-23T07:28:36;29.60;;;17.45;;
84260;SDS011;74405;44.868;18.808;2024-03-23T07:31:09;27.00;;;15.73;;
84260;SDS011;74405;44.868;18.808;2024-03-23T07:36:00;22.95;;;15.35;;
84260;SDS011;74405;44.868;18.808;2024-03-23T07:38:28;26.10;;;16.58;;
84260;SDS011;74405;44.868;18.808;2024-03-23T07:41:10;19.80;;;14.57;;
84260;SDS011;74405;44.868;18.808;2024-03-23T07:43:36;22.42;;;14.65;;
84260;SDS011;74405;44.868;18.808;2024-03-23T07:46:02;20.10;;;13.60;;
84260;SDS011;74405;44.868;18.808;2024-03-23T07:48:29;22.27;;;14.13;;
84260;SDS011;74405;44.868;18.808;2024-03-23T07:51:01;18.58;;;12.52;;
84260;SDS011;74405;44.868;18.808;2024-03-23T07:55:53;15.60;;;10.30;;
84260;SDS011;74405;44.868;18.808;2024-03-23T07:58:19;15.77;;;11.25;;
84260;SDS011;74405;44.868;18.808;2024-03-23T08:00:45;17.80;;;11.23;;
84260;SDS011;74405;44.868;18.808;2024-03-23T08:03:10;14.95;;;11.40;;
84260;SDS011;74405;44.868;18.808;2024-03-23T08:05:36;14.88;;;11.30;;
84260;SDS011;74405;44.868;18.808;2024-03-23T08:08:01;14.57;;;11.27;;
84260;SDS011;74405;44.868;18.808;2024-03-23T08:10:26;11.52;;;9.48;;
84260;SDS011;74405;44.868;18.808;2024-03-23T08:12:52;11.57;;;9.68;;
84260;SDS011;74405;44.868;18.808;2024-03-23T08:15:17;12.60;;;8.90;;
84260;SDS011;74405;44.868;18.808;2024-03-23T08:17:43;12.15;;;9.63;;
84260;SDS011;74405;44.868;18.808;2024-03-23T08:20:08;18.02;;;11.32;;
84260;SDS011;74405;44.868;18.808;2024-03-23T08:22:34;16.40;;;11.70;;
84260;SDS011;74405;44.868;18.808;2024-03-23T08:24:59;17.00;;;13.00;;
84260;SDS011;74405;44.868;18.808;2024-03-23T08:27:25;17.67;;;12.20;;
84260;SDS011;74405;44.868;18.808;2024-03-23T08:29:50;13.55;;;10.80;;
84260;SDS011;74405;44.868;18.808;2024-03-23T08:32:16;14.73;;;11.05;;
84260;SDS011;74405;44.868;18.808;2024-03-23T08:34:42;15.07;;;10.73;;
84260;SDS011;74405;44.868;18.808;2024-03-23T08:37:08;15.05;;;11.32;;
84260;SDS011;74405;44.868;18.808;2024-03-23T08:39:34;21.70;;;12.30;;
84260;SDS011;74405;44.868;18.808;2024-03-23T08:41:59;13.73;;;10.82;;
84260;SDS011;74405;44.868;18.808;2024-03-23T08:44:25;15.00;;;10.88;;
84260;SDS011;74405;44.868;18.808;2024-03-23T08:46:50;15.32;;;12.20;;
84260;SDS011;74405;44.868;18.808;2024-03-23T08:49:15;17.83;;;10.48;;
84260;SDS011;74405;44.868;18.808;2024-03-23T08:51:41;17.88;;;11.88;;
84260;SDS011;74405;44.868;18.808;2024-03-23T08:54:06;14.38;;;11.43;;
84260;SDS011;74405;44.868;18.808;2024-03-23T08:56:32;13.43;;;9.95;;
84260;SDS011;74405;44.868;18.808;2024-03-23T08:58:57;15.52;;;11.23;;
84260;SDS011;74405;44.868;18.808;2024-03-23T09:01:23;15.32;;;10.70;;
84260;SDS011;74405;44.868;18.808;2024-03-23T09:03:48;10.35;;;7.22;;
84260;SDS011;74405;44.868;18.808;2024-03-23T09:06:14;8.25;;;6.43;;
84260;SDS011;74405;44.868;18.808;2024-03-23T09:08:39;9.68;;;7.03;;
84260;SDS011;74405;44.868;18.808;2024-03-23T09:11:09;10.68;;;7.03;;
84260;SDS011;74405;44.868;18.808;2024-03-23T09:13:35;10.77;;;6.18;;
84260;SDS011;74405;44.868;18.808;2024-03-23T09:16:01;9.10;;;5.93;;
84260;SDS011;74405;44.868;18.808;2024-03-23T09:18:26;7.78;;;5.38;;
84260;SDS011;74405;44.868;18.808;2024-03-23T09:20:52;6.95;;;5.57;;
84260;SDS011;74405;44.868;18.808;2024-03-23T09:23:20;10.25;;;6.47;;
84260;SDS011;74405;44.868;18.808;2024-03-23T09:25:45;8.65;;;6.57;;
84260;SDS011;74405;44.868;18.808;2024-03-23T09:28:11;7.13;;;6.22;;
84260;SDS011;74405;44.868;18.808;2024-03-23T09:30:36;6.53;;;5.25;;
84260;SDS011;74405;44.868;18.808;2024-03-23T09:33:08;6.70;;;4.88;;
84260;SDS011;74405;44.868;18.808;2024-03-23T09:35:36;9.77;;;5.03;;
84260;SDS011;74405;44.868;18.808;2024-03-23T09:38:01;6.50;;;4.63;;
84260;SDS011;74405;44.868;18.808;2024-03-23T09:40:27;6.00;;;4.60;;
84260;SDS011;74405;44.868;18.808;2024-03-23T09:42:52;8.15;;;5.20;;
84260;SDS011;74405;44.868;18.808;2024-03-23T09:45:23;5.93;;;4.63;;
84260;SDS011;74405;44.868;18.808;2024-03-23T09:47:51;5.22;;;4.72;;
84260;SDS011;74405;44.868;18.808;2024-03-23T09:50:17;5.65;;;4.50;;
84260;SDS011;74405;44.868;18.808;2024-03-23T09:52:42;6.30;;;3.97;;
84260;SDS011;74405;44.868;18.808;2024-03-23T09:55:08;5.63;;;4.28;;
84260;SDS011;74405;44.868;18.808;2024-03-23T09:57:34;5.47;;;4.20;;
84260;SDS011;74405;44.868;18.808;2024-03-23T09:59:59;4.45;;;3.30;;
84260;SDS011;74405;44.868;18.808;2024-03-23T10:02:24;4.22;;;3.13;;
84260;SDS011;74405;44.868;18.808;2024-03-23T10:04:50;5.63;;;3.22;;
84260;SDS011;74405;44.868;18.808;2024-03-23T10:07:19;4.10;;;2.90;;
84260;SDS011;74405;44.868;18.808;2024-03-23T10:09:45;6.35;;;2.78;;
84260;SDS011;74405;44.868;18.808;2024-03-23T10:12:15;4.82;;;2.53;;
84260;SDS011;74405;44.868;18.808;2024-03-23T10:14:41;6.35;;;4.25;;
84260;SDS011;74405;44.868;18.808;2024-03-23T10:19:46;3.45;;;3.00;;
84260;SDS011;74405;44.868;18.808;2024-03-23T10:22:30;5.03;;;2.70;;
84260;SDS011;74405;44.868;18.808;2024-03-23T10:25:07;5.07;;;2.97;;
84260;SDS011;74405;44.868;18.808;2024-03-23T10:27:33;3.92;;;2.75;;
84260;SDS011;74405;44.868;18.808;2024-03-23T10:29:59;4.28;;;2.88;;
84260;SDS011;74405;44.868;18.808;2024-03-23T10:32:32;3.30;;;3.00;;
84260;SDS011;74405;44.868;18.808;2024-03-23T10:34:57;2.92;;;2.55;;
84260;SDS011;74405;44.868;18.808;2024-03-23T10:37:38;4.43;;;3.58;;
84260;SDS011;74405;44.868;18.808;2024-03-23T10:40:04;4.40;;;3.13;;
84260;SDS011;74405;44.868;18.808;2024-03-23T10:42:30;5.63;;;3.20;;
84260;SDS011;74405;44.868;18.808;2024-03-23T10:44:57;4.70;;;3.25;;
84260;SDS011;74405;44.868;18.808;2024-03-23T10:47:23;3.53;;;3.10;;
84260;SDS011;74405;44.868;18.808;2024-03-23T10:49:48;4.22;;;3.22;;
84260;SDS011;74405;44.868;18.808;2024-03-23T10:52:14;5.70;;;3.45;;
84260;SDS011;74405;44.868;18.808;2024-03-23T10:54:39;4.97;;;3.70;;
84260;SDS011;74405;44.868;18.808;2024-03-23T10:57:08;3.95;;;2.92;;
84260;SDS011;74405;44.868;18.808;2024-03-23T10:59:35;4.38;;;3.35;;
84260;SDS011;74405;44.868;18.808;2024-03-23T11:02:02;4.15;;;3.70;;
84260;SDS011;74405;44.868;18.808;2024-03-23T11:06:57;3.63;;;2.90;;
84260;SDS011;74405;44.868;18.808;2024-03-23T11:14:44;4.85;;;3.63;;
84260;SDS011;74405;44.868;18.808;2024-03-23T11:17:10;7.80;;;4.38;;
84260;SDS011;74405;44.868;18.808;2024-03-23T11:19:36;4.60;;;4.05;;
84260;SDS011;74405;44.868;18.808;2024-03-23T11:22:02;4.70;;;3.22;;
84260;SDS011;74405;44.868;18.808;2024-03-23T11:24:27;4.82;;;4.10;;
84260;SDS011;74405;44.868;18.808;2024-03-23T11:26:53;4.63;;;3.25;;
84260;SDS011;74405;44.868;18.808;2024-03-23T11:29:18;3.60;;;3.22;;
84260;SDS011;74405;44.868;18.808;2024-03-23T11:31:47;4.00;;;3.60;;
84260;SDS011;74405;44.868;18.808;2024-03-23T11:34:13;5.63;;;3.60;;
84260;SDS011;74405;44.868;18.808;2024-03-23T11:36:40;4.88;;;3.67;;
84260;SDS011;74405;44.868;18.808;2024-03-23T11:39:15;4.72;;;4.32;;
84260;SDS011;74405;44.868;18.808;2024-03-23T11:41:47;5.40;;;3.80;;
84260;SDS011;74405;44.868;18.808;2024-03-23T11:44:23;4.68;;;4.05;;
84260;SDS011;74405;44.868;18.808;2024-03-23T11:46:49;4.53;;;3.70;;
84260;SDS011;74405;44.868;18.808;2024-03-23T11:49:28;5.55;;;4.35;;
84260;SDS011;74405;44.868;18.808;2024-03-23T11:51:54;4.38;;;3.85;;
84260;SDS011;74405;44.868;18.808;2024-03-23T11:54:20;5.03;;;3.80;;
84260;SDS011;74405;44.868;18.808;2024-03-23T11:56:56;4.30;;;3.53;;
84260;SDS011;74405;44.868;18.808;2024-03-23T12:01:56;5.03;;;3.63;;
84260;SDS011;74405;44.868;18.808;2024-03-23T12:04:28;5.13;;;3.97;;
84260;SDS011;74405;44.868;18.808;2024-03-23T12:09:19;6.50;;;4.50;;
84260;SDS011;74405;44.868;18.808;2024-03-23T12:11:46;4.95;;;4.28;;
84260;SDS011;74405;44.868;18.808;2024-03-23T12:14:14;5.03;;;4.57;;
84260;SDS011;74405;44.868;18.808;2024-03-23T12:16:39;3.55;;;3.20;;
84260;SDS011;74405;44.868;18.808;2024-03-23T12:19:05;3.80;;;3.40;;
84260;SDS011;74405;44.868;18.808;2024-03-23T12:21:30;5.00;;;3.20;;
84260;SDS011;74405;44.868;18.808;2024-03-23T12:23:56;5.47;;;3.80;;
84260;SDS011;74405;44.868;18.808;2024-03-23T12:26:21;4.88;;;3.38;;
84260;SDS011;74405;44.868;18.808;2024-03-23T12:28:48;5.25;;;3.08;;
84260;SDS011;74405;44.868;18.808;2024-03-23T12:31:13;3.80;;;3.40;;
84260;SDS011;74405;44.868;18.808;2024-03-23T12:33:39;4.35;;;3.20;;
84260;SDS011;74405;44.868;18.808;2024-03-23T12:36:04;5.28;;;3.47;;
84260;SDS011;74405;44.868;18.808;2024-03-23T12:38:30;5.30;;;3.72;;
84260;SDS011;74405;44.868;18.808;2024-03-23T12:40:55;5.55;;;3.50;;
84260;SDS011;74405;44.868;18.808;2024-03-23T12:43:21;7.65;;;4.25;;
84260;SDS011;74405;44.868;18.808;2024-03-23T12:45:49;5.50;;;3.58;;
84260;SDS011;74405;44.868;18.808;2024-03-23T12:48:15;3.83;;;3.42;;
84260;SDS011;74405;44.868;18.808;2024-03-23T12:50:41;3.58;;;3.28;;
84260;SDS011;74405;44.868;18.808;2024-03-23T12:53:06;4.97;;;3.38;;
84260;SDS011;74405;44.868;18.808;2024-03-23T12:55:31;4.55;;;3.80;;
84260;SDS011;74405;44.868;18.808;2024-03-23T12:57:57;4.30;;;3.90;;
84260;SDS011;74405;44.868;18.808;2024-03-23T13:00:22;4.90;;;3.75;;
84260;SDS011;74405;44.868;18.808;2024-03-23T13:02:48;4.53;;;3.67;;
84260;SDS011;74405;44.868;18.808;2024-03-23T13:05:14;5.57;;;4.25;;
84260;SDS011;74405;44.868;18.808;2024-03-23T13:07:39;4.97;;;4.03;;
84260;SDS011;74405;44.868;18.808;2024-03-23T13:10:05;4.40;;;4.00;;
84260;SDS011;74405;44.868;18.808;2024-03-23T13:12:31;4.80;;;4.15;;
84260;SDS011;74405;44.868;18.808;2024-03-23T13:14:58;9.05;;;4.45;;
84260;SDS011;74405;44.868;18.808;2024-03-23T13:17:23;5.03;;;4.20;;
84260;SDS011;74405;44.868;18.808;2024-03-23T13:19:48;7.05;;;4.20;;
84260;SDS011;74405;44.868;18.808;2024-03-23T13:22:14;8.57;;;6.25;;
84260;SDS011;74405;44.868;18.808;2024-03-23T13:24:39;8.10;;;5.30;;
84260;SDS011;74405;44.868;18.808;2024-03-23T13:27:05;5.03;;;3.97;;
84260;SDS011;74405;44.868;18.808;2024-03-23T13:29:33;4.22;;;3.83;;
84260;SDS011;74405;44.868;18.808;2024-03-23T13:32:00;5.60;;;3.72;;
84260;SDS011;74405;44.868;18.808;2024-03-23T13:34:25;4.38;;;3.97;;
84260;SDS011;74405;44.868;18.808;2024-03-23T13:36:51;5.60;;;3.83;;
84260;SDS011;74405;44.868;18.808;2024-03-23T13:39:16;6.05;;;4.18;;
84260;SDS011;74405;44.868;18.808;2024-03-23T13:41:45;4.50;;;4.03;;
84260;SDS011;74405;44.868;18.808;2024-03-23T13:44:11;6.40;;;4.28;;
84260;SDS011;74405;44.868;18.808;2024-03-23T13:46:37;5.20;;;4.10;;
84260;SDS011;74405;44.868;18.808;2024-03-23T13:49:03;5.65;;;4.15;;
84260;SDS011;74405;44.868;18.808;2024-03-23T13:51:29;5.43;;;4.30;;
84260;SDS011;74405;44.868;18.808;2024-03-23T13:53:54;5.18;;;4.07;;
84260;SDS011;74405;44.868;18.808;2024-03-23T13:56:21;5.55;;;4.63;;
84260;SDS011;74405;44.868;18.808;2024-03-23T13:58:47;6.90;;;4.35;;
84260;SDS011;74405;44.868;18.808;2024-03-23T14:01:15;5.25;;;4.05;;
84260;SDS011;74405;44.868;18.808;2024-03-23T14:03:41;5.05;;;3.53;;
84260;SDS011;74405;44.868;18.808;2024-03-23T14:06:07;4.90;;;4.22;;
84260;SDS011;74405;44.868;18.808;2024-03-23T14:08:33;4.88;;;3.85;;
84260;SDS011;74405;44.868;18.808;2024-03-23T14:11:01;5.53;;;4.18;;
84260;SDS011;74405;44.868;18.808;2024-03-23T14:13:27;4.60;;;4.10;;
84260;SDS011;74405;44.868;18.808;2024-03-23T14:15:53;5.15;;;4.00;;
84260;SDS011;74405;44.868;18.808;2024-03-23T14:18:18;6.25;;;4.05;;
84260;SDS011;74405;44.868;18.808;2024-03-23T14:20:44;5.38;;;3.97;;
84260;SDS011;74405;44.868;18.808;2024-03-23T14:23:09;5.72;;;4.03;;
84260;SDS011;74405;44.868;18.808;2024-03-23T14:25:35;5.00;;;3.53;;
84260;SDS011;74405;44.868;18.808;2024-03-23T14:28:00;4.45;;;4.05;;
84260;SDS011;74405;44.868;18.808;2024-03-23T14:30:25;5.00;;;4.05;;
84260;SDS011;74405;44.868;18.808;2024-03-23T14:32:51;5.60;;;4.15;;
84260;SDS011;74405;44.868;18.808;2024-03-23T14:35:16;6.70;;;4.45;;
84260;SDS011;74405;44.868;18.808;2024-03-23T14:37:42;4.70;;;4.30;;
84260;SDS011;74405;44.868;18.808;2024-03-23T14:40:08;5.55;;;4.78;;
84260;SDS011;74405;44.868;18.808;2024-03-23T14:42:33;7.13;;;4.65;;
84260;SDS011;74405;44.868;18.808;2024-03-23T14:44:59;7.57;;;4.97;;
84260;SDS011;74405;44.868;18.808;2024-03-23T14:47:25;6.57;;;4.95;;
84260;SDS011;74405;44.868;18.808;2024-03-23T14:49:50;5.95;;;4.53;;
84260;SDS011;74405;44.868;18.808;2024-03-23T14:52:16;4.78;;;4.38;;
84260;SDS011;74405;44.868;18.808;2024-03-23T14:54:43;6.20;;;4.72;;
84260;SDS011;74405;44.868;18.808;2024-03-23T14:57:08;6.30;;;5.40;;
84260;SDS011;74405;44.868;18.808;2024-03-23T14:59:34;6.93;;;5.35;;
84260;SDS011;74405;44.868;18.808;2024-03-23T15:02:00;5.65;;;4.97;;
84260;SDS011;74405;44.868;18.808;2024-03-23T15:04:25;6.93;;;4.78;;
84260;SDS011;74405;44.868;18.808;2024-03-23T15:06:51;7.38;;;4.90;;
84260;SDS011;74405;44.868;18.808;2024-03-23T15:09:16;8.00;;;5.32;;
84260;SDS011;74405;44.868;18.808;2024-03-23T15:11:42;8.00;;;4.88;;
84260;SDS011;74405;44.868;18.808;2024-03-23T15:14:07;5.82;;;4.57;;
84260;SDS011;74405;44.868;18.808;2024-03-23T15:16:33;10.80;;;4.88;;
84260;SDS011;74405;44.868;18.808;2024-03-23T15:18:58;5.30;;;4.80;;
84260;SDS011;74405;44.868;18.808;2024-03-23T15:21:24;8.55;;;4.80;;
84260;SDS011;74405;44.868;18.808;2024-03-23T15:23:49;7.35;;;4.53;;
84260;SDS011;74405;44.868;18.808;2024-03-23T15:26:15;5.32;;;4.38;;